createdAt,value
2022-09-28T00:01:08.607Z,12.52
2022-09-28T00:03:37.139Z,12.50
2022-09-28T00:06:07.681Z,12.58
2022-09-28T00:08:36.458Z,12.39
2022-09-28T00:11:11.444Z,12.58
2022-09-28T00:13:40.154Z,12.60
2022-09-28T00:16:10.287Z,12.55
2022-09-28T00:18:38.598Z,12.60
2022-09-28T00:21:09.087Z,12.57
2022-09-28T00:23:59.751Z,12.58
2022-09-28T00:26:30.093Z,12.54
2022-09-28T00:29:00.314Z,12.48
2022-09-28T00:31:30.256Z,12.38
2022-09-28T00:33:58.281Z,12.44
2022-09-28T00:36:27.241Z,12.40
2022-09-28T00:38:56.483Z,12.39
2022-09-28T00:41:25.101Z,12.31
2022-09-28T00:43:55.338Z,12.31
2022-09-28T00:46:29.128Z,12.26
2022-09-28T00:49:03.268Z,12.35
2022-09-28T00:51:32.868Z,12.32
2022-09-28T00:54:03.713Z,12.42
2022-09-28T00:56:35.060Z,12.39
2022-09-28T00:59:05.674Z,12.42
2022-09-28T01:01:33.474Z,12.41
2022-09-28T01:04:02.820Z,12.34
2022-09-28T01:06:34.178Z,12.45
2022-09-28T01:09:05.353Z,12.47
2022-09-28T01:11:34.854Z,12.50
2022-09-28T01:14:04.792Z,12.49
2022-09-28T01:16:41.171Z,12.51
2022-09-28T01:19:32.056Z,12.57
2022-09-28T01:22:14.246Z,12.68
2022-09-28T01:24:46.377Z,12.70
2022-09-28T01:27:21.005Z,12.69
2022-09-28T01:29:56.710Z,12.58
2022-09-28T01:32:35.896Z,12.66
2022-09-28T01:35:09.125Z,12.78
2022-09-28T01:37:45.280Z,12.69
2022-09-28T01:40:16.660Z,12.78
2022-09-28T01:42:49.622Z,12.51
2022-09-28T01:45:24.809Z,12.79
2022-09-28T01:47:58.152Z,12.83
2022-09-28T01:50:29.781Z,12.90
2022-09-28T01:53:03.947Z,12.92
2022-09-28T01:55:34.994Z,12.91
2022-09-28T01:58:11.877Z,12.89
2022-09-28T02:00:43.753Z,12.83
2022-09-28T02:03:16.776Z,12.86
2022-09-28T02:05:50.203Z,12.77
2022-09-28T02:08:26.817Z,12.73
2022-09-28T02:11:03.043Z,12.75
2022-09-28T02:13:36.561Z,12.55
2022-09-28T02:16:10.496Z,12.71
2022-09-28T02:18:38.471Z,12.65
2022-09-28T02:21:10.683Z,12.67
2022-09-28T02:23:47.205Z,12.73
2022-09-28T02:26:19.330Z,12.71
2022-09-28T02:28:48.552Z,12.73
2022-09-28T02:31:16.649Z,12.59
2022-09-28T02:33:46.358Z,12.73
2022-09-28T02:36:14.526Z,12.77
2022-09-28T02:38:42.406Z,12.82
2022-09-28T02:41:21.378Z,12.81
2022-09-28T02:44:04.575Z,12.82
2022-09-28T02:46:39.590Z,12.75
2022-09-28T02:49:23.622Z,12.73
2022-09-28T02:52:07.563Z,12.73
2022-09-28T02:54:53.453Z,12.69
2022-09-28T02:57:36.744Z,12.61
2022-09-28T03:00:10.488Z,12.65
2022-09-28T03:02:46.622Z,12.61
2022-09-28T03:05:20.400Z,12.66
2022-09-28T03:07:58.214Z,12.67
2022-09-28T03:10:34.895Z,12.62
2022-09-28T03:13:05.663Z,12.66
2022-09-28T03:15:35.950Z,12.58
2022-09-28T03:18:04.109Z,12.68
2022-09-28T03:20:33.729Z,12.71
2022-09-28T03:25:50.106Z,12.63
2022-09-28T03:28:17.927Z,12.63
2022-09-28T03:30:47.194Z,12.62
2022-09-28T03:33:15.357Z,12.60
2022-09-28T03:35:43.483Z,12.61
2022-09-28T03:38:11.637Z,12.57
2022-09-28T03:40:39.720Z,12.57
2022-09-28T03:43:07.587Z,12.57
2022-09-28T03:45:35.564Z,12.54
2022-09-28T03:48:05.208Z,12.59
2022-09-28T03:50:33.069Z,12.59
2022-09-28T03:53:04.252Z,12.57
2022-09-28T03:55:32.234Z,12.41
2022-09-28T03:58:00.093Z,12.57
2022-09-28T04:00:28.144Z,12.51
2022-09-28T04:02:56.154Z,12.65
2022-09-28T04:05:25.445Z,12.66
2022-09-28T04:07:56.351Z,12.70
2022-09-28T04:10:24.273Z,12.64
2022-09-28T04:12:55.652Z,12.62
2022-09-28T04:15:23.870Z,12.64
2022-09-28T04:17:52.198Z,12.70
2022-09-28T04:20:24.735Z,12.62
2022-09-28T04:22:54.156Z,12.61
2022-09-28T04:25:22.156Z,12.70
2022-09-28T04:28:08.165Z,12.66
2022-09-28T04:30:36.185Z,12.61
2022-09-28T04:33:04.114Z,12.69
2022-09-28T04:35:33.083Z,12.66
2022-09-28T04:38:02.317Z,12.62
2022-09-28T04:40:30.298Z,12.63
2022-09-28T04:42:58.651Z,12.57
2022-09-28T04:45:27.549Z,12.63
2022-09-28T04:47:55.671Z,12.61
2022-09-28T04:50:23.689Z,12.53
2022-09-28T04:52:51.666Z,12.60
2022-09-28T04:55:20.918Z,12.56
2022-09-28T04:57:49.188Z,12.56
2022-09-28T05:00:17.462Z,12.64
2022-09-28T05:02:45.730Z,12.62
2022-09-28T05:05:15.755Z,12.41
2022-09-28T05:07:45.620Z,12.57
2022-09-28T05:10:13.609Z,12.71
2022-09-28T05:12:45.251Z,12.75
2022-09-28T05:15:15.297Z,12.75
2022-09-28T05:17:43.196Z,12.75
2022-09-28T05:20:11.943Z,12.74
2022-09-28T05:22:39.910Z,12.75
2022-09-28T05:25:09.005Z,12.77
2022-09-28T05:27:39.457Z,12.78
2022-09-28T05:30:10.908Z,12.79
2022-09-28T05:32:41.476Z,12.84
2022-09-28T05:35:11.157Z,12.91
2022-09-28T05:37:39.364Z,12.83
2022-09-28T05:40:08.663Z,12.70
2022-09-28T05:42:36.662Z,12.80
2022-09-28T05:45:05.257Z,12.85
2022-09-28T05:47:39.126Z,12.73
2022-09-28T05:50:08.426Z,12.76
2022-09-28T05:52:36.351Z,12.75
2022-09-28T05:55:04.802Z,12.73
2022-09-28T05:57:32.950Z,12.60
2022-09-28T06:00:01.089Z,12.62
2022-09-28T06:02:31.263Z,12.74
2022-09-28T06:05:00.556Z,12.75
2022-09-28T06:07:28.413Z,12.78
2022-09-28T06:10:00.552Z,12.82
2022-09-28T06:12:28.603Z,12.81
2022-09-28T06:14:57.976Z,12.83
2022-09-28T06:17:25.923Z,12.85
2022-09-28T06:19:53.792Z,12.88
2022-09-28T06:22:23.108Z,12.85
2022-09-28T06:24:51.105Z,12.86
2022-09-28T06:27:19.031Z,12.93
2022-09-28T06:29:47.276Z,12.82
2022-09-28T06:32:15.341Z,13.00
2022-09-28T06:34:43.344Z,13.01
2022-09-28T06:37:11.151Z,13.03
2022-09-28T06:39:40.664Z,13.06
2022-09-28T06:42:08.561Z,13.13
2022-09-28T06:44:36.389Z,13.07
2022-09-28T06:47:04.762Z,13.20
2022-09-28T06:49:32.647Z,13.05
2022-09-28T06:52:00.710Z,13.19
2022-09-28T06:54:28.664Z,13.26
2022-09-28T06:56:57.921Z,13.30
2022-09-28T06:59:25.767Z,13.33
2022-09-28T07:01:53.987Z,13.49
2022-09-28T07:04:21.871Z,13.49
2022-09-28T07:06:50.560Z,13.62
2022-09-28T07:09:31.690Z,13.58
2022-09-28T07:12:04.209Z,13.72
2022-09-28T07:14:47.031Z,13.82
2022-09-28T07:17:17.041Z,13.91
2022-09-28T07:19:53.896Z,13.78
2022-09-28T07:22:35.565Z,14.06
2022-09-28T07:25:09.184Z,14.09
2022-09-28T07:27:38.480Z,14.22
2022-09-28T07:30:07.672Z,14.31
2022-09-28T07:32:37.654Z,14.32
2022-09-28T07:35:08.062Z,14.54
2022-09-28T07:37:36.626Z,14.61
2022-09-28T07:40:23.538Z,14.50
2022-09-28T07:42:52.940Z,14.59
2022-09-28T07:45:23.835Z,14.61
2022-09-28T07:47:51.772Z,14.73
2022-09-28T07:50:21.290Z,14.93
2022-09-28T07:52:49.700Z,15.09
2022-09-28T07:55:17.560Z,15.43
2022-09-28T07:57:47.105Z,15.79
2022-09-28T08:00:17.200Z,16.15
2022-09-28T08:02:45.219Z,16.47
2022-09-28T08:05:13.432Z,16.93
2022-09-28T08:07:41.634Z,17.55
2022-09-28T08:10:12.302Z,17.48
2022-09-28T08:12:41.456Z,17.89
2022-09-28T08:15:11.351Z,17.68
2022-09-28T08:17:40.792Z,18.56
2022-09-28T08:20:27.793Z,18.88
2022-09-28T08:22:56.908Z,19.05
2022-09-28T08:25:25.482Z,20.05
2022-09-28T08:27:56.301Z,20.78
2022-09-28T08:30:24.308Z,20.83
2022-09-28T08:32:55.019Z,20.96
2022-09-28T08:35:26.320Z,21.34
2022-09-28T08:37:55.615Z,21.15
2022-09-28T08:40:26.161Z,20.29
2022-09-28T08:42:57.791Z,20.00
2022-09-28T08:45:29.473Z,20.00
2022-09-28T08:48:22.407Z,20.03
2022-09-28T08:50:56.034Z,19.47
2022-09-28T08:53:35.742Z,18.69
2022-09-28T08:56:07.430Z,17.57
2022-09-28T08:58:40.449Z,17.08
2022-09-28T09:01:14.214Z,16.86
2022-09-28T09:03:45.356Z,16.57
2022-09-28T09:06:25.452Z,16.55
2022-09-28T09:09:08.127Z,16.33
2022-09-28T09:11:50.498Z,16.20
2022-09-28T09:14:41.521Z,15.80
2022-09-28T09:17:21.214Z,15.78
2022-09-28T09:19:54.678Z,15.83
2022-09-28T09:22:38.684Z,15.79
2022-09-28T09:25:19.457Z,15.69
2022-09-28T09:28:07.952Z,16.00
2022-09-28T09:30:46.370Z,15.93
2022-09-28T09:33:45.729Z,15.83
2022-09-28T09:36:30.302Z,16.17
2022-09-28T09:39:15.307Z,16.06
2022-09-28T09:41:56.801Z,16.16
2022-09-28T09:44:44.116Z,15.91
2022-09-28T09:47:17.602Z,15.66
2022-09-28T09:49:51.231Z,15.78
2022-09-28T09:52:26.504Z,15.43
2022-09-28T09:54:59.437Z,15.15
2022-09-28T09:57:32.623Z,14.88
2022-09-28T10:00:03.066Z,14.60
2022-09-28T10:02:34.075Z,14.70
2022-09-28T10:05:08.815Z,15.79
2022-09-28T10:07:45.183Z,16.01
2022-09-28T10:10:24.948Z,15.85
2022-09-28T10:12:54.511Z,15.65
2022-09-28T10:15:26.558Z,15.56
2022-09-28T10:17:57.059Z,15.07
2022-09-28T10:20:25.659Z,14.84
2022-09-28T10:22:57.979Z,14.90
2022-09-28T10:25:26.466Z,14.88
2022-09-28T10:27:55.391Z,14.87
2022-09-28T10:30:27.310Z,14.81
2022-09-28T10:32:59.567Z,14.82
2022-09-28T10:35:29.898Z,14.75
2022-09-28T10:38:03.366Z,14.89
2022-09-28T10:40:41.807Z,15.15
2022-09-28T10:43:21.554Z,15.34
2022-09-28T10:46:03.966Z,15.55
2022-09-28T10:48:48.850Z,15.55
2022-09-28T10:51:18.331Z,15.61
2022-09-28T10:54:00.463Z,15.58
2022-09-28T10:56:30.502Z,15.42
2022-09-28T10:58:58.378Z,15.46
2022-09-28T11:01:33.989Z,15.46
2022-09-28T11:04:03.852Z,15.30
2022-09-28T11:06:33.897Z,15.15
2022-09-28T11:09:05.791Z,15.08
2022-09-28T11:11:41.776Z,15.11
2022-09-28T11:14:27.406Z,15.22
2022-09-28T11:17:19.678Z,15.14
2022-09-28T11:19:47.640Z,15.08
2022-09-28T11:22:24.701Z,14.92
2022-09-28T11:25:14.831Z,15.14
2022-09-28T11:27:44.069Z,15.74
2022-09-28T11:30:24.901Z,15.81
2022-09-28T11:32:55.837Z,16.02
2022-09-28T11:35:26.769Z,15.75
2022-09-28T11:38:13.229Z,15.69
2022-09-28T11:40:55.961Z,16.41
2022-09-28T11:43:46.303Z,17.86
2022-09-28T11:46:22.022Z,18.82
2022-09-28T11:48:54.054Z,19.23
2022-09-28T11:51:30.334Z,18.19
2022-09-28T11:54:04.425Z,17.07
2022-09-28T11:56:39.295Z,16.12
2022-09-28T11:59:13.701Z,15.56
2022-09-28T12:01:49.707Z,16.62
2022-09-28T12:04:24.063Z,17.40
2022-09-28T12:06:58.416Z,18.13
2022-09-28T12:09:33.121Z,18.62
2022-09-28T12:12:10.516Z,18.07
2022-09-28T12:14:41.790Z,17.04
2022-09-28T12:17:22.296Z,16.51
2022-09-28T12:19:55.436Z,16.04
2022-09-28T12:22:31.299Z,15.52
2022-09-28T12:25:00.279Z,15.05
2022-09-28T12:27:45.644Z,14.76
2022-09-28T12:30:16.499Z,14.80
2022-09-28T12:32:48.076Z,14.99
2022-09-28T12:35:18.987Z,15.31
2022-09-28T12:38:02.597Z,16.66
2022-09-28T12:40:41.604Z,18.37
2022-09-28T12:43:40.713Z,18.38
2022-09-28T12:46:27.711Z,19.50
2022-09-28T12:50:27.190Z,21.21
2022-09-28T12:52:35.390Z,21.60
2022-09-28T12:55:25.848Z,20.53
2022-09-28T12:58:02.098Z,19.01
2022-09-28T13:00:42.110Z,17.46
2022-09-28T13:03:37.777Z,16.68
2022-09-28T13:06:42.929Z,16.06
2022-09-28T13:09:39.643Z,15.74
2022-09-28T13:12:46.161Z,15.33
2022-09-28T13:15:36.205Z,15.49
2022-09-28T13:18:12.334Z,15.08
2022-09-28T13:20:52.490Z,15.01
2022-09-28T13:23:24.335Z,14.76
2022-09-28T13:26:02.679Z,14.42
2022-09-28T13:28:33.578Z,14.22
2022-09-28T13:31:04.594Z,14.50
2022-09-28T13:33:36.960Z,14.49
2022-09-28T13:36:06.143Z,14.73
2022-09-28T13:38:55.543Z,14.80
2022-09-28T13:41:29.385Z,15.34
2022-09-28T13:44:44.338Z,16.30
2022-09-28T13:47:27.421Z,16.01
2022-09-28T13:50:06.963Z,15.51
2022-09-28T13:52:45.626Z,15.18
2022-09-28T13:55:39.323Z,15.15
2022-09-28T13:58:22.032Z,14.77
2022-09-28T14:00:54.336Z,14.30
2022-09-28T14:03:30.272Z,15.10
2022-09-28T14:06:21.883Z,17.89
2022-09-28T14:09:09.835Z,21.00
2022-09-28T14:11:43.779Z,21.18
2022-09-28T14:14:52.848Z,19.42
2022-09-28T14:17:55.625Z,16.91
2022-09-28T14:20:31.829Z,16.25
2022-09-28T14:23:17.724Z,15.36
2022-09-28T14:25:48.933Z,15.53
2022-09-28T14:28:34.106Z,15.94
2022-09-28T14:31:10.801Z,16.28
2022-09-28T14:33:42.747Z,16.27
2022-09-28T14:36:47.738Z,17.29
2022-09-28T14:39:48.295Z,19.55
2022-09-28T14:42:19.866Z,19.39
2022-09-28T14:45:21.879Z,18.49
2022-09-28T14:48:15.384Z,17.40
2022-09-28T14:50:43.686Z,16.56
2022-09-28T14:53:19.802Z,15.84
2022-09-28T14:55:50.376Z,15.40
2022-09-28T14:58:24.028Z,14.95
2022-09-28T15:01:08.866Z,14.49
2022-09-28T15:03:41.673Z,14.24
2022-09-28T15:06:15.919Z,14.00
2022-09-28T15:08:45.290Z,13.61
2022-09-28T15:11:16.763Z,13.44
2022-09-28T15:13:47.711Z,13.23
2022-09-28T15:16:20.460Z,13.22
2022-09-28T15:19:10.562Z,12.90
2022-09-28T15:21:39.730Z,12.77
2022-09-28T15:24:30.761Z,12.69
2022-09-28T15:26:58.994Z,12.87
2022-09-28T15:29:31.072Z,12.83
2022-09-28T15:31:59.449Z,12.93
2022-09-28T15:34:46.864Z,12.91
2022-09-28T15:37:18.006Z,12.68
2022-09-28T15:39:48.376Z,12.74
2022-09-28T15:42:20.471Z,12.66
2022-09-28T15:45:26.556Z,12.53
2022-09-28T15:48:22.239Z,12.45
2022-09-28T15:51:05.371Z,12.35
2022-09-28T15:53:34.626Z,12.38
2022-09-28T15:56:10.351Z,12.15
2022-09-28T15:58:39.468Z,12.21
2022-09-28T16:01:36.641Z,12.06
2022-09-28T16:04:40.730Z,12.23
2022-09-28T16:07:33.476Z,11.96
2022-09-28T16:10:30.388Z,11.51
2022-09-28T16:13:10.488Z,11.53
2022-09-28T16:15:39.702Z,11.53
2022-09-28T16:18:19.312Z,11.35
2022-09-28T16:20:50.931Z,11.21
2022-09-28T16:23:22.553Z,11.14
2022-09-28T16:26:00.584Z,11.16
2022-09-28T16:28:52.915Z,11.05
2022-09-28T16:31:30.426Z,10.90
2022-09-28T16:34:01.507Z,10.89
2022-09-28T16:36:40.093Z,10.83
2022-09-28T16:39:08.601Z,10.66
2022-09-28T16:41:40.906Z,10.55
2022-09-28T16:44:20.539Z,10.14
2022-09-28T16:47:06.401Z,10.30
2022-09-28T16:50:04.244Z,9.83
2022-09-28T16:52:50.339Z,9.86
2022-09-28T16:58:18.754Z,9.57
2022-09-28T17:00:48.011Z,9.80
2022-09-28T17:03:18.434Z,9.83
2022-09-28T17:05:48.835Z,9.75
2022-09-28T17:08:18.547Z,9.88
2022-09-28T17:13:40.920Z,9.83
2022-09-28T17:16:14.524Z,9.95
2022-09-28T17:18:43.143Z,9.98
2022-09-28T17:21:16.093Z,9.91
2022-09-28T17:23:44.298Z,9.93
2022-09-28T17:26:20.410Z,9.84
2022-09-28T17:28:48.668Z,9.78
2022-09-28T17:31:18.432Z,9.81
2022-09-28T17:33:47.029Z,9.72
2022-09-28T17:36:17.480Z,9.79
2022-09-28T17:38:46.792Z,9.71
2022-09-28T17:41:20.272Z,9.71
2022-09-28T17:43:49.413Z,9.69
2022-09-28T17:46:27.466Z,9.66
2022-09-28T17:48:57.769Z,9.59
2022-09-28T17:51:25.692Z,9.29
2022-09-28T17:53:57.059Z,9.48
2022-09-28T17:56:29.822Z,9.42
2022-09-28T17:59:01.335Z,9.37
2022-09-28T18:01:34.496Z,9.27
2022-09-28T18:04:04.061Z,9.16
2022-09-28T18:06:33.651Z,9.22
2022-09-28T18:09:03.511Z,9.25
2022-09-28T18:11:32.285Z,9.35
2022-09-28T18:14:00.205Z,9.42
2022-09-28T18:16:30.247Z,9.40
2022-09-28T18:18:59.879Z,9.55
2022-09-28T18:21:28.320Z,9.44
2022-09-28T18:23:56.110Z,9.47
2022-09-28T18:26:24.719Z,9.67
2022-09-28T18:28:55.611Z,9.68
2022-09-28T18:31:23.921Z,9.70
2022-09-28T18:33:52.025Z,9.68
2022-09-28T18:36:29.639Z,9.64
2022-09-28T18:39:00.909Z,9.66
2022-09-28T18:41:30.145Z,9.50
2022-09-28T18:44:01.064Z,9.44
2022-09-28T18:46:30.398Z,9.49
2022-09-28T18:48:58.375Z,9.43
2022-09-28T18:51:28.330Z,9.53
2022-09-28T18:53:58.861Z,9.54
2022-09-28T18:56:28.093Z,9.54
2022-09-28T18:58:56.905Z,9.48
2022-09-28T19:01:30.070Z,9.54
2022-09-28T19:04:00.126Z,9.50
2022-09-28T19:06:30.424Z,9.50
2022-09-28T19:08:59.054Z,9.45
2022-09-28T19:11:27.579Z,9.42
2022-09-28T19:13:56.642Z,9.29
2022-09-28T19:16:27.363Z,9.25
2022-09-28T19:18:57.606Z,9.10
2022-09-28T19:21:27.144Z,8.90
2022-09-28T19:23:56.913Z,8.77
2022-09-28T19:26:27.801Z,8.64
2022-09-28T19:28:57.414Z,8.50
2022-09-28T19:31:27.341Z,8.42
2022-09-28T19:33:55.710Z,8.30
2022-09-28T19:36:26.138Z,8.30
2022-09-28T19:38:54.064Z,8.11
2022-09-28T19:41:44.576Z,8.08
2022-09-28T19:44:19.238Z,7.95
2022-09-28T19:46:47.368Z,8.02
2022-09-28T19:49:19.671Z,7.95
2022-09-28T19:52:11.658Z,7.95
2022-09-28T19:54:38.140Z,7.88
2022-09-28T19:57:08.960Z,7.91
2022-09-28T19:59:40.906Z,7.88
2022-09-28T20:02:11.536Z,8.00
2022-09-28T20:04:48.169Z,7.92
2022-09-28T20:07:16.327Z,7.93
2022-09-28T20:09:44.366Z,7.83
2022-09-28T20:12:14.363Z,7.84
2022-09-28T20:14:42.393Z,7.76
2022-09-28T20:17:10.975Z,7.65
2022-09-28T20:19:39.147Z,7.57
2022-09-28T20:22:07.172Z,7.49
2022-09-28T20:24:35.068Z,7.39
2022-09-28T20:27:03.156Z,7.31
2022-09-28T20:29:33.643Z,7.29
2022-09-28T20:32:04.935Z,7.30
2022-09-28T20:34:33.776Z,7.17
2022-09-28T20:37:01.809Z,7.19
2022-09-28T20:39:29.760Z,7.31
2022-09-28T20:41:58.648Z,7.31
2022-09-28T20:44:26.670Z,7.25
2022-09-28T20:46:56.742Z,7.23
2022-09-28T20:49:24.820Z,7.17
2022-09-28T20:51:52.676Z,7.09
2022-09-28T20:54:22.144Z,7.00
2022-09-28T20:56:50.159Z,6.89
2022-09-28T20:59:18.436Z,6.88
2022-09-28T21:01:46.316Z,6.84
2022-09-28T21:04:15.795Z,6.80
2022-09-28T21:06:43.736Z,6.71
2022-09-28T21:09:12.810Z,6.69
2022-09-28T21:11:41.810Z,6.71
2022-09-28T21:14:10.899Z,6.86
2022-09-28T21:16:39.393Z,6.89
2022-09-28T21:19:07.470Z,6.96
2022-09-28T21:21:36.767Z,6.97
2022-09-28T21:24:05.067Z,6.98
2022-09-28T21:26:33.322Z,7.01
2022-09-28T21:29:03.070Z,6.99
2022-09-28T21:31:32.684Z,6.97
2022-09-28T21:34:01.478Z,6.93
2022-09-28T21:36:32.031Z,6.98
2022-09-28T21:39:01.670Z,6.99
2022-09-28T21:41:29.754Z,7.00
2022-09-28T21:43:57.694Z,7.06
2022-09-28T21:46:27.002Z,7.01
2022-09-28T21:48:55.173Z,7.01
2022-09-28T21:51:23.137Z,7.10
2022-09-28T21:53:51.187Z,7.11
2022-09-28T21:56:21.148Z,7.11
2022-09-28T21:58:48.986Z,7.47
2022-09-28T22:01:19.558Z,7.66
2022-09-28T22:03:50.825Z,7.75
2022-09-28T22:06:21.382Z,8.07
2022-09-28T22:08:50.151Z,8.33
2022-09-28T22:11:21.868Z,8.47
2022-09-28T22:13:51.726Z,8.53
2022-09-28T22:16:24.508Z,8.55
2022-09-28T22:18:52.452Z,8.57
2022-09-28T22:21:22.092Z,8.55
2022-09-28T22:23:50.652Z,8.57
2022-09-28T22:26:23.435Z,8.57
2022-09-28T22:28:54.017Z,8.65
2022-09-28T22:31:24.648Z,8.65
2022-09-28T22:33:52.629Z,8.65
2022-09-28T22:36:21.079Z,8.73
2022-09-28T22:38:50.001Z,8.69
2022-09-28T22:41:21.038Z,8.78
2022-09-28T22:43:49.405Z,8.78
2022-09-28T22:46:19.499Z,8.76
2022-09-28T22:48:48.367Z,8.75
2022-09-28T22:51:16.540Z,8.73
2022-09-28T22:53:44.384Z,8.65
2022-09-28T22:56:18.179Z,8.67
2022-09-28T22:58:48.108Z,8.63
2022-09-28T23:01:18.613Z,8.47
2022-09-28T23:03:47.083Z,8.51
2022-09-28T23:06:17.449Z,8.45
2022-09-28T23:08:46.170Z,8.44
2022-09-28T23:11:14.155Z,8.38
2022-09-28T23:13:42.032Z,8.38
2022-09-28T23:16:13.282Z,8.30
2022-09-28T23:18:41.848Z,8.19
2022-09-28T23:21:15.311Z,8.21
2022-09-28T23:23:43.333Z,8.17
2022-09-28T23:26:14.392Z,8.13
2022-09-28T23:28:42.956Z,8.12
2022-09-28T23:31:13.735Z,8.28
2022-09-28T23:33:41.841Z,8.22
2022-09-28T23:36:10.945Z,8.23
2022-09-28T23:38:39.042Z,8.30
2022-09-28T23:41:07.035Z,8.28
2022-09-28T23:43:35.063Z,8.26
2022-09-28T23:46:03.208Z,8.21
2022-09-28T23:48:34.519Z,8.14
2022-09-28T23:51:03.317Z,8.05
2022-09-28T23:53:33.179Z,8.01
2022-09-28T23:56:01.248Z,7.92
2022-09-28T23:58:29.045Z,7.88
